createdAt,value
2023-02-01T00:00:28.858Z,59.63
2023-02-01T00:02:55.344Z,59.62
2023-02-01T00:05:24.948Z,59.69
2023-02-01T00:07:51.461Z,59.72
2023-02-01T00:10:18.750Z,60.01
2023-02-01T00:12:45.605Z,60.41
2023-02-01T00:15:12.782Z,60.51
2023-02-01T00:17:39.299Z,60.38
2023-02-01T00:20:06.399Z,60.06
2023-02-01T00:22:32.940Z,60.27
2023-02-01T00:24:59.420Z,60.14
2023-02-01T00:27:25.947Z,60.55
2023-02-01T00:29:52.408Z,60.78
2023-02-01T00:32:18.890Z,60.61
2023-02-01T00:34:45.419Z,60.33
2023-02-01T00:37:12.024Z,60.05
2023-02-01T00:39:38.509Z,60.55
2023-02-01T00:42:05.019Z,59.98
2023-02-01T00:44:31.493Z,60.26
2023-02-01T00:46:57.953Z,61.28
2023-02-01T00:49:24.455Z,61.03
2023-02-01T00:51:50.966Z,60.76
2023-02-01T00:54:17.607Z,60.56
2023-02-01T00:56:44.385Z,60.58
2023-02-01T00:59:14.126Z,60.95
2023-02-01T01:01:40.935Z,60.72
2023-02-01T01:04:07.700Z,61.56
2023-02-01T01:06:35.516Z,61.36
2023-02-01T01:09:05.337Z,61.62
2023-02-01T01:11:35.469Z,61.46
2023-02-01T01:14:02.630Z,61.14
2023-02-01T01:16:31.935Z,61.42
2023-02-01T01:18:59.964Z,61.35
2023-02-01T01:21:29.401Z,61.44
2023-02-01T01:23:56.465Z,61.45
2023-02-01T01:26:26.210Z,61.85
2023-02-01T01:28:55.206Z,61.23
2023-02-01T01:31:21.861Z,61.18
2023-02-01T01:33:53.422Z,61.15
2023-02-01T01:36:20.632Z,61.03
2023-02-01T01:38:47.139Z,61.86
2023-02-01T01:41:21.455Z,63.04
2023-02-01T01:43:56.860Z,63.44
2023-02-01T01:46:29.123Z,63.56
2023-02-01T01:49:06.671Z,62.67
2023-02-01T01:51:50.089Z,62.19
2023-02-01T01:54:20.260Z,62.16
2023-02-01T01:56:53.855Z,62.61
2023-02-01T01:59:24.083Z,62.23
2023-02-01T02:01:52.420Z,62.07
2023-02-01T02:04:20.395Z,62.20
2023-02-01T02:07:00.645Z,62.60
2023-02-01T02:09:27.182Z,63.28
2023-02-01T02:11:53.679Z,63.83
2023-02-01T02:14:26.023Z,64.29
2023-02-01T02:17:12.140Z,64.23
2023-02-01T02:19:53.447Z,64.20
2023-02-01T02:22:46.014Z,64.18
2023-02-01T02:26:02.656Z,64.88
2023-02-01T02:28:44.381Z,64.95
2023-02-01T02:31:29.454Z,64.31
2023-02-01T02:34:35.809Z,64.26
2023-02-01T02:37:36.143Z,64.25
2023-02-01T02:40:23.596Z,63.86
2023-02-01T02:43:13.452Z,64.06
2023-02-01T02:45:52.933Z,63.94
2023-02-01T02:48:33.823Z,63.65
2023-02-01T02:51:29.938Z,64.56
2023-02-01T02:54:06.202Z,64.85
2023-02-01T02:56:36.016Z,64.11
2023-02-01T02:59:05.735Z,64.17
2023-02-01T03:01:33.951Z,63.69
2023-02-01T03:04:00.503Z,63.92
2023-02-01T03:06:27.012Z,63.95
2023-02-01T03:08:59.126Z,63.75
2023-02-01T03:11:27.081Z,62.89
2023-02-01T03:13:57.230Z,63.49
2023-02-01T03:16:38.259Z,63.15
2023-02-01T03:19:15.268Z,62.89
2023-02-01T03:24:26.534Z,64.06
2023-02-01T03:26:58.703Z,64.35
2023-02-01T03:29:37.626Z,64.72
2023-02-01T03:32:04.552Z,64.29
2023-02-01T03:34:31.158Z,63.22
2023-02-01T03:37:07.285Z,63.37
2023-02-01T03:40:01.049Z,62.98
2023-02-01T03:42:45.868Z,63.42
2023-02-01T03:45:25.435Z,63.14
2023-02-01T03:47:57.911Z,63.89
2023-02-01T03:50:28.544Z,63.40
2023-02-01T03:53:17.521Z,63.42
2023-02-01T03:55:44.735Z,62.68
2023-02-01T03:58:15.440Z,63.54
2023-02-01T04:00:46.907Z,63.73
2023-02-01T04:03:13.554Z,63.54
2023-02-01T04:05:40.210Z,63.80
2023-02-01T04:08:06.773Z,63.47
2023-02-01T04:10:33.502Z,64.06
2023-02-01T04:13:04.895Z,64.52
2023-02-01T04:15:31.367Z,64.68
2023-02-01T04:17:57.863Z,65.17
2023-02-01T04:20:24.821Z,65.53
2023-02-01T04:22:51.522Z,65.19
2023-02-01T04:25:18.103Z,65.23
2023-02-01T04:27:44.947Z,66.22
2023-02-01T04:30:12.338Z,66.14
2023-02-01T04:32:39.618Z,65.65
2023-02-01T04:35:08.252Z,64.99
2023-02-01T04:37:35.276Z,66.06
2023-02-01T04:40:01.831Z,66.32
2023-02-01T04:42:28.303Z,66.67
2023-02-01T04:44:54.784Z,66.45
2023-02-01T04:47:21.250Z,66.54
2023-02-01T04:49:47.704Z,67.00
2023-02-01T04:52:14.196Z,65.99
2023-02-01T04:54:40.704Z,68.72
2023-02-01T04:57:07.182Z,69.18
2023-02-01T04:59:33.627Z,68.24
2023-02-01T05:02:00.104Z,68.12
2023-02-01T05:04:26.734Z,68.00
2023-02-01T05:06:53.278Z,68.57
2023-02-01T05:09:19.798Z,68.65
2023-02-01T05:11:46.305Z,68.65
2023-02-01T05:14:12.902Z,68.14
2023-02-01T05:16:39.490Z,67.67
2023-02-01T05:19:06.020Z,67.16
2023-02-01T05:21:32.565Z,66.46
2023-02-01T05:23:59.082Z,66.55
2023-02-01T05:26:27.356Z,68.21
2023-02-01T05:28:53.877Z,68.10
2023-02-01T05:31:20.751Z,68.44
2023-02-01T05:33:47.411Z,68.63
2023-02-01T05:36:14.176Z,68.56
2023-02-01T05:38:41.248Z,68.97
2023-02-01T05:41:08.112Z,68.79
2023-02-01T05:43:34.572Z,68.03
2023-02-01T05:46:01.197Z,68.00
2023-02-01T05:48:27.868Z,67.70
2023-02-01T05:50:54.467Z,67.18
2023-02-01T05:53:21.428Z,66.61
2023-02-01T05:55:47.900Z,68.32
2023-02-01T05:58:14.448Z,67.43
2023-02-01T06:00:41.135Z,67.31
2023-02-01T06:03:08.954Z,66.69
2023-02-01T06:05:35.474Z,67.43
2023-02-01T06:08:01.974Z,66.54
2023-02-01T06:10:28.455Z,65.39
2023-02-01T06:12:54.930Z,65.31
2023-02-01T06:15:21.438Z,66.00
2023-02-01T06:17:48.092Z,66.03
2023-02-01T06:20:15.879Z,65.77
2023-02-01T06:22:42.384Z,65.39
2023-02-01T06:25:10.508Z,65.71
2023-02-01T06:27:37.102Z,65.38
2023-02-01T06:30:05.324Z,65.99
2023-02-01T06:32:32.060Z,65.12
2023-02-01T06:34:58.561Z,65.30
2023-02-01T06:37:25.319Z,65.31
2023-02-01T06:39:52.121Z,64.78
2023-02-01T06:42:18.623Z,64.50
2023-02-01T06:44:45.128Z,64.16
2023-02-01T06:47:14.629Z,64.54
2023-02-01T06:49:41.881Z,64.73
2023-02-01T06:52:08.359Z,64.45
2023-02-01T06:54:34.850Z,64.02
2023-02-01T06:57:01.338Z,64.57
2023-02-01T06:59:27.834Z,64.17
2023-02-01T07:01:54.395Z,63.92
2023-02-01T07:04:20.920Z,63.92
2023-02-01T07:06:47.456Z,64.13
2023-02-01T07:09:14.022Z,63.36
2023-02-01T07:11:40.615Z,63.00
2023-02-01T07:14:07.238Z,62.72
2023-02-01T07:16:33.833Z,62.76
2023-02-01T07:19:00.352Z,62.62
2023-02-01T07:21:26.842Z,62.94
2023-02-01T07:23:53.345Z,62.56
2023-02-01T07:26:19.933Z,62.00
2023-02-01T07:28:46.720Z,62.18
2023-02-01T07:31:16.953Z,62.63
2023-02-01T07:33:43.438Z,62.06
2023-02-01T07:36:14.221Z,61.53
2023-02-01T07:38:40.707Z,61.31
2023-02-01T07:41:07.419Z,61.80
2023-02-01T07:43:34.672Z,61.73
2023-02-01T07:46:02.303Z,61.63
2023-02-01T07:48:29.156Z,61.98
2023-02-01T07:50:59.900Z,61.33
2023-02-01T07:53:27.157Z,61.55
2023-02-01T07:55:54.040Z,61.87
2023-02-01T07:58:20.546Z,61.96
2023-02-01T08:00:47.061Z,62.11
2023-02-01T08:03:13.556Z,62.05
2023-02-01T08:05:40.128Z,62.66
2023-02-01T08:08:07.557Z,63.31
2023-02-01T08:10:34.457Z,63.17
2023-02-01T08:13:02.165Z,63.04
2023-02-01T08:15:29.696Z,64.11
2023-02-01T08:17:56.586Z,63.81
2023-02-01T08:20:24.130Z,64.46
2023-02-01T08:22:54.209Z,64.87
2023-02-01T08:25:21.130Z,65.28
2023-02-01T08:27:48.329Z,64.67
2023-02-01T08:30:14.905Z,64.55
2023-02-01T08:32:41.562Z,64.80
2023-02-01T08:35:09.049Z,64.96
2023-02-01T08:37:35.588Z,64.63
2023-02-01T08:40:02.298Z,64.68
2023-02-01T08:42:28.924Z,63.81
2023-02-01T08:44:55.784Z,64.05
2023-02-01T08:47:22.870Z,65.72
2023-02-01T08:49:49.401Z,65.84
2023-02-01T08:52:16.470Z,65.67
2023-02-01T08:54:43.028Z,65.87
2023-02-01T08:57:09.529Z,65.95
2023-02-01T08:59:36.026Z,65.26
2023-02-01T09:02:02.623Z,64.68
2023-02-01T09:04:29.145Z,63.89
2023-02-01T09:06:55.825Z,64.99
2023-02-01T09:09:28.198Z,65.32
2023-02-01T09:11:54.755Z,65.57
2023-02-01T09:14:21.308Z,67.57
2023-02-01T09:16:47.837Z,67.60
2023-02-01T09:19:25.914Z,66.29
2023-02-01T09:21:53.131Z,65.52
2023-02-01T09:24:19.717Z,64.39
2023-02-01T09:26:46.240Z,64.31
2023-02-01T09:29:12.826Z,64.06
2023-02-01T09:31:44.145Z,63.34
2023-02-01T09:34:13.563Z,63.13
2023-02-01T09:36:40.069Z,61.41
2023-02-01T09:39:06.609Z,62.70
2023-02-01T09:41:39.091Z,63.09
2023-02-01T09:44:35.616Z,61.90
2023-02-01T09:47:12.999Z,62.13
2023-02-01T09:49:51.665Z,60.71
2023-02-01T09:52:31.494Z,60.69
2023-02-01T09:55:06.389Z,59.94
2023-02-01T09:58:10.301Z,59.63
2023-02-01T10:03:32.715Z,59.59
2023-02-01T10:05:15.263Z,58.85
2023-02-01T10:07:55.120Z,59.04
2023-02-01T10:10:46.719Z,60.10
2023-02-01T10:13:28.178Z,58.89
2023-02-01T10:16:17.749Z,59.24
2023-02-01T10:19:07.031Z,58.95
2023-02-01T10:21:48.646Z,59.41
2023-02-01T10:24:34.134Z,58.88
2023-02-01T10:27:25.858Z,58.90
2023-02-01T10:30:00.328Z,59.30
2023-02-01T10:32:35.420Z,58.79
2023-02-01T10:35:37.495Z,59.27
2023-02-01T10:38:26.327Z,58.89
2023-02-01T10:40:57.859Z,60.00
2023-02-01T10:43:24.656Z,60.18
2023-02-01T10:45:51.197Z,59.40
2023-02-01T10:48:18.037Z,59.70
2023-02-01T10:51:06.665Z,60.78
2023-02-01T10:53:54.149Z,60.39
2023-02-01T10:56:28.969Z,59.80
2023-02-01T10:59:07.452Z,59.75
2023-02-01T11:01:42.687Z,60.05
2023-02-01T11:04:15.632Z,59.38
2023-02-01T11:06:45.715Z,59.30
2023-02-01T11:09:21.161Z,59.47
2023-02-01T11:11:47.612Z,59.50
2023-02-01T11:14:20.212Z,59.19
2023-02-01T11:16:58.993Z,58.34
2023-02-01T11:19:25.534Z,58.61
2023-02-01T11:21:54.864Z,57.71
2023-02-01T11:24:32.090Z,57.41
2023-02-01T11:27:01.493Z,57.62
2023-02-01T11:29:37.612Z,57.22
2023-02-01T11:32:05.576Z,56.89
2023-02-01T11:34:40.527Z,55.64
2023-02-01T11:37:21.708Z,52.07
2023-02-01T11:40:00.230Z,52.62
2023-02-01T11:42:29.198Z,55.06
2023-02-01T11:45:24.943Z,53.69
2023-02-01T11:47:56.931Z,53.48
2023-02-01T11:50:36.681Z,55.00
2023-02-01T11:53:16.689Z,53.97
2023-02-01T11:55:53.301Z,54.36
2023-02-01T11:58:54.028Z,54.68
2023-02-01T12:02:03.709Z,55.33
2023-02-01T12:04:56.622Z,55.21
2023-02-01T12:07:50.683Z,54.98
2023-02-01T12:10:56.354Z,54.30
2023-02-01T12:13:49.812Z,52.81
2023-02-01T12:16:35.031Z,52.23
2023-02-01T12:19:29.710Z,52.13
2023-02-01T12:22:27.025Z,50.31
2023-02-01T12:25:18.083Z,51.18
2023-02-01T12:27:56.962Z,51.50
2023-02-01T12:30:48.155Z,52.36
2023-02-01T12:33:39.380Z,50.74
2023-02-01T12:36:15.299Z,50.96
2023-02-01T12:38:55.445Z,51.39
2023-02-01T12:41:49.893Z,53.69
2023-02-01T12:44:37.455Z,53.36
2023-02-01T12:47:12.882Z,53.19
2023-02-01T12:50:03.015Z,54.73
2023-02-01T12:52:47.279Z,54.14
2023-02-01T12:55:24.555Z,54.10
2023-02-01T12:57:57.158Z,53.47
2023-02-01T13:00:37.065Z,54.10
2023-02-01T13:03:37.275Z,51.98
2023-02-01T13:06:18.610Z,51.79
2023-02-01T13:09:00.451Z,51.21
2023-02-01T13:11:40.231Z,50.89
2023-02-01T13:14:24.722Z,50.58
2023-02-01T13:17:02.689Z,50.22
2023-02-01T13:19:35.827Z,50.36
2023-02-01T13:22:14.266Z,50.34
2023-02-01T13:25:12.908Z,49.41
2023-02-01T13:27:40.763Z,48.56
2023-02-01T13:30:25.278Z,47.83
2023-02-01T13:33:52.494Z,47.15
2023-02-01T13:36:39.902Z,46.69
2023-02-01T13:39:45.889Z,46.56
2023-02-01T13:42:26.478Z,45.85
2023-02-01T13:45:00.821Z,46.88
2023-02-01T13:47:35.840Z,44.74
2023-02-01T13:50:26.954Z,45.14
2023-02-01T13:53:00.555Z,44.32
2023-02-01T13:55:37.882Z,43.81
2023-02-01T13:58:19.389Z,44.32
2023-02-01T14:00:46.690Z,44.08
2023-02-01T14:03:19.091Z,43.70
2023-02-01T14:05:45.569Z,44.17
2023-02-01T14:08:15.354Z,43.19
2023-02-01T14:10:58.441Z,42.69
2023-02-01T14:13:38.250Z,41.32
2023-02-01T14:16:05.008Z,41.12
2023-02-01T14:18:34.312Z,40.33
2023-02-01T14:21:23.023Z,39.11
2023-02-01T14:24:17.430Z,38.71
2023-02-01T14:26:50.952Z,38.01
2023-02-01T14:29:21.394Z,36.98
2023-02-01T14:32:06.777Z,36.29
2023-02-01T14:34:48.117Z,35.48
2023-02-01T14:37:17.622Z,35.24
2023-02-01T14:39:47.170Z,35.46
2023-02-01T14:42:38.515Z,35.48
2023-02-01T14:45:20.433Z,36.90
2023-02-01T14:47:49.042Z,37.95
2023-02-01T14:50:27.754Z,37.86
2023-02-01T14:53:09.605Z,37.80
2023-02-01T14:56:06.921Z,37.50
2023-02-01T14:58:50.042Z,38.15
2023-02-01T15:01:28.332Z,38.39
2023-02-01T15:04:03.484Z,39.22
2023-02-01T15:06:43.125Z,40.90
2023-02-01T15:09:12.038Z,40.09
2023-02-01T15:11:57.191Z,39.56
2023-02-01T15:14:24.318Z,38.81
2023-02-01T15:16:50.925Z,39.70
2023-02-01T15:19:17.465Z,38.84
2023-02-01T15:21:50.665Z,38.34
2023-02-01T15:24:25.095Z,37.85
2023-02-01T15:26:54.310Z,38.11
2023-02-01T15:29:24.116Z,39.09
2023-02-01T15:31:53.395Z,39.11
2023-02-01T15:34:21.490Z,38.98
2023-02-01T15:37:00.687Z,38.50
2023-02-01T15:39:29.338Z,39.67
2023-02-01T15:42:14.378Z,40.27
2023-02-01T15:44:46.720Z,40.66
2023-02-01T15:47:20.868Z,40.53
2023-02-01T15:49:53.731Z,40.93
2023-02-01T15:52:33.071Z,41.54
2023-02-01T15:55:05.964Z,42.06
2023-02-01T15:57:37.720Z,42.80
2023-02-01T16:00:08.992Z,42.93
2023-02-01T16:02:42.396Z,42.42
2023-02-01T16:05:36.111Z,43.79
2023-02-01T16:08:16.154Z,42.59
2023-02-01T16:10:46.966Z,42.36
2023-02-01T16:13:15.830Z,43.25
2023-02-01T16:15:43.041Z,44.01
2023-02-01T16:18:10.565Z,43.56
2023-02-01T16:20:40.393Z,43.18
2023-02-01T16:23:08.600Z,42.79
2023-02-01T16:25:35.908Z,43.74
2023-02-01T16:28:02.420Z,43.43
2023-02-01T16:30:28.971Z,47.65
2023-02-01T16:32:58.030Z,47.69
2023-02-01T16:35:28.646Z,49.19
2023-02-01T16:37:55.585Z,48.21
2023-02-01T16:40:22.673Z,48.21
2023-02-01T16:42:54.198Z,47.59
2023-02-01T16:45:20.882Z,48.12
2023-02-01T16:47:57.888Z,48.16
2023-02-01T16:50:26.640Z,45.75
2023-02-01T16:52:54.258Z,44.50
2023-02-01T16:55:22.913Z,44.78
2023-02-01T16:57:50.948Z,46.13
2023-02-01T17:00:24.450Z,46.46
2023-02-01T17:02:52.367Z,46.57
2023-02-01T17:05:18.952Z,48.56
2023-02-01T17:07:46.270Z,49.36
2023-02-01T17:10:33.436Z,48.85
2023-02-01T17:13:00.865Z,45.69
2023-02-01T17:15:33.761Z,45.93
2023-02-01T17:18:01.091Z,49.92
2023-02-01T17:20:31.667Z,51.58
2023-02-01T17:22:59.004Z,53.63
2023-02-01T17:25:28.405Z,54.37
2023-02-01T17:27:54.899Z,54.11
2023-02-01T17:30:21.660Z,54.16
2023-02-01T17:32:48.324Z,54.22
2023-02-01T17:35:22.360Z,53.71
2023-02-01T17:37:50.745Z,52.50
2023-02-01T17:40:18.002Z,52.25
2023-02-01T17:42:47.956Z,51.85
2023-02-01T17:45:30.075Z,51.99
2023-02-01T17:47:56.561Z,52.01
2023-02-01T17:50:28.049Z,51.45
2023-02-01T17:52:54.513Z,50.82
2023-02-01T17:55:25.712Z,51.37
2023-02-01T17:57:52.549Z,51.18
2023-02-01T18:00:19.602Z,50.78
2023-02-01T18:02:46.457Z,50.70
2023-02-01T18:05:36.711Z,51.73
2023-02-01T18:08:03.280Z,51.59
2023-02-01T18:10:30.444Z,51.65
2023-02-01T18:12:57.049Z,52.56
2023-02-01T18:15:26.010Z,52.45
2023-02-01T18:17:53.965Z,51.71
2023-02-01T18:20:23.956Z,51.66
2023-02-01T18:22:51.488Z,51.52
2023-02-01T18:25:22.473Z,50.99
2023-02-01T18:27:51.548Z,51.22
2023-02-01T18:30:22.169Z,50.54
2023-02-01T18:32:50.049Z,50.54
2023-02-01T18:35:21.370Z,50.63
2023-02-01T18:37:49.878Z,50.05
2023-02-01T18:40:19.655Z,50.02
2023-02-01T18:42:46.919Z,50.65
2023-02-01T18:45:39.427Z,50.25
2023-02-01T18:48:08.159Z,50.30
2023-02-01T18:50:38.473Z,50.53
2023-02-01T18:53:08.094Z,50.66
2023-02-01T18:55:34.755Z,51.00
2023-02-01T18:58:04.659Z,50.64
2023-02-01T19:00:31.173Z,50.57
2023-02-01T19:02:58.259Z,50.88
2023-02-01T19:05:28.149Z,51.10
2023-02-01T19:07:54.696Z,50.86
2023-02-01T19:10:23.261Z,51.11
2023-02-01T19:12:51.717Z,51.04
2023-02-01T19:15:19.086Z,51.47
2023-02-01T19:17:48.905Z,52.27
2023-02-01T19:20:18.931Z,51.99
2023-02-01T19:22:46.366Z,52.82
2023-02-01T19:25:17.317Z,52.39
2023-02-01T19:27:45.605Z,52.06
2023-02-01T19:30:12.859Z,51.75
2023-02-01T19:32:40.161Z,51.75
2023-02-01T19:35:08.294Z,53.65
2023-02-01T19:37:35.089Z,57.24
2023-02-01T19:40:01.776Z,58.63
2023-02-01T19:42:28.452Z,58.62
2023-02-01T19:44:54.948Z,58.76
2023-02-01T19:47:21.455Z,59.62
2023-02-01T19:49:48.043Z,59.75
2023-02-01T19:52:14.528Z,59.88
2023-02-01T19:54:40.994Z,60.91
2023-02-01T19:57:07.523Z,60.80
2023-02-01T19:59:34.020Z,62.53
2023-02-01T20:01:59.606Z,61.78
2023-02-01T20:04:26.217Z,61.71
2023-02-01T20:06:52.692Z,61.59
2023-02-01T20:09:21.723Z,60.80
2023-02-01T20:11:48.765Z,61.22
2023-02-01T20:14:15.869Z,60.97
2023-02-01T20:16:42.925Z,61.29
2023-02-01T20:19:10.679Z,60.77
2023-02-01T20:21:39.205Z,60.57
2023-02-01T20:24:06.258Z,60.79
2023-02-01T20:26:34.342Z,59.67
2023-02-01T20:29:02.299Z,58.49
2023-02-01T20:31:31.821Z,58.37
2023-02-01T20:34:00.324Z,58.34
2023-02-01T20:36:28.566Z,58.27
2023-02-01T20:38:56.752Z,57.89
2023-02-01T20:41:24.625Z,56.31
2023-02-01T20:43:51.248Z,56.30
2023-02-01T20:46:17.905Z,55.65
2023-02-01T20:48:46.496Z,56.46
2023-02-01T20:51:14.995Z,56.22
2023-02-01T20:53:42.252Z,55.20
2023-02-01T20:56:13.509Z,54.88
2023-02-01T20:58:40.759Z,54.85
2023-02-01T21:01:07.739Z,54.77
2023-02-01T21:03:35.091Z,53.65
2023-02-01T21:06:03.084Z,53.32
2023-02-01T21:08:30.715Z,52.17
2023-02-01T21:11:12.123Z,51.53
2023-02-01T21:13:41.662Z,50.26
2023-02-01T21:16:11.541Z,49.98
2023-02-01T21:18:38.285Z,49.20
2023-02-01T21:21:12.523Z,48.83
2023-02-01T21:23:39.150Z,48.41
2023-02-01T21:26:05.722Z,47.66
2023-02-01T21:28:32.292Z,46.75
2023-02-01T21:30:58.833Z,46.25
2023-02-01T21:33:25.325Z,45.87
2023-02-01T21:35:52.230Z,45.54
2023-02-01T21:38:18.745Z,45.96
2023-02-01T21:40:45.345Z,45.89
2023-02-01T21:43:11.904Z,46.34
2023-02-01T21:45:41.600Z,46.90
2023-02-01T21:48:10.279Z,46.71
2023-02-01T21:50:36.759Z,46.38
2023-02-01T21:53:03.203Z,46.20
2023-02-01T21:55:29.906Z,46.43
2023-02-01T21:57:56.377Z,46.45
2023-02-01T22:00:22.857Z,46.35
2023-02-01T22:02:49.321Z,46.52
2023-02-01T22:05:15.842Z,46.66
2023-02-01T22:07:42.422Z,46.37
2023-02-01T22:10:12.979Z,46.26
2023-02-01T22:12:39.553Z,46.71
2023-02-01T22:15:06.313Z,47.22
2023-02-01T22:17:32.848Z,48.02
2023-02-01T22:19:59.331Z,47.53
2023-02-01T22:22:25.785Z,47.14
2023-02-01T22:24:52.434Z,46.71
2023-02-01T22:27:18.913Z,47.29
2023-02-01T22:29:45.402Z,47.45
2023-02-01T22:32:12.611Z,47.36
2023-02-01T22:34:39.477Z,47.39
2023-02-01T22:37:06.247Z,48.09
2023-02-01T22:39:32.686Z,48.01
2023-02-01T22:41:59.270Z,48.59
2023-02-01T22:44:25.821Z,48.38
2023-02-01T22:46:52.511Z,49.51
2023-02-01T22:49:18.983Z,48.87
2023-02-01T22:51:45.473Z,48.73
2023-02-01T22:54:20.937Z,49.67
2023-02-01T22:56:48.473Z,49.34
2023-02-01T22:59:15.309Z,49.13
2023-02-01T23:01:42.842Z,49.19
2023-02-01T23:04:12.621Z,48.86
2023-02-01T23:06:39.968Z,48.91
2023-02-01T23:09:26.723Z,48.68
2023-02-01T23:11:54.274Z,48.50
2023-02-01T23:14:21.459Z,49.32
2023-02-01T23:16:49.480Z,48.54
2023-02-01T23:19:17.034Z,48.67
2023-02-01T23:21:43.731Z,48.75
2023-02-01T23:24:10.210Z,49.93
2023-02-01T23:26:37.920Z,49.49
2023-02-01T23:29:05.242Z,49.52
2023-02-01T23:31:33.991Z,49.59
2023-02-01T23:34:02.718Z,49.59
2023-02-01T23:36:29.809Z,49.73
2023-02-01T23:38:56.378Z,50.01
2023-02-01T23:41:24.269Z,49.63
2023-02-01T23:43:50.831Z,49.62
2023-02-01T23:46:18.425Z,49.24
2023-02-01T23:48:47.199Z,49.68
2023-02-01T23:51:15.346Z,50.37
2023-02-01T23:53:41.814Z,49.60
2023-02-01T23:56:08.419Z,50.12
2023-02-01T23:58:34.947Z,49.66
